createdAt,value
2022-09-09T00:01:39.038Z,4.72
2022-09-09T00:04:12.561Z,5.30
2022-09-09T00:06:58.438Z,5.00
2022-09-09T00:09:30.131Z,4.35
2022-09-09T00:12:04.541Z,4.65
2022-09-09T00:15:01.404Z,4.28
2022-09-09T00:17:34.898Z,4.95
2022-09-09T00:20:13.390Z,7.35
2022-09-09T00:22:44.863Z,4.82
2022-09-09T00:25:17.958Z,3.85
2022-09-09T00:27:49.638Z,4.75
2022-09-09T00:30:25.372Z,5.60
2022-09-09T00:32:59.199Z,3.25
2022-09-09T00:35:32.293Z,5.55
2022-09-09T00:38:02.184Z,6.50
2022-09-09T00:40:34.721Z,3.13
2022-09-09T00:43:02.686Z,4.70
2022-09-09T00:45:39.236Z,5.18
2022-09-09T00:48:10.892Z,4.25
2022-09-09T00:50:42.299Z,5.63
2022-09-09T00:53:25.168Z,4.53
2022-09-09T00:56:01.315Z,5.47
2022-09-09T00:58:29.038Z,3.55
2022-09-09T01:01:04.844Z,6.03
2022-09-09T01:03:36.684Z,3.75
2022-09-09T01:06:27.394Z,4.32
2022-09-09T01:09:16.595Z,5.47
2022-09-09T01:12:19.734Z,3.35
2022-09-09T01:15:04.449Z,5.63
2022-09-09T01:17:40.053Z,4.80
2022-09-09T01:20:18.239Z,5.10
2022-09-09T01:22:53.426Z,5.13
2022-09-09T01:25:39.828Z,3.78
2022-09-09T01:28:17.816Z,4.30
2022-09-09T01:30:45.423Z,4.55
2022-09-09T01:33:17.862Z,4.40
2022-09-09T01:35:57.442Z,5.35
2022-09-09T01:38:30.675Z,5.00
2022-09-09T01:40:59.489Z,3.72
2022-09-09T01:43:37.444Z,4.03
2022-09-09T01:46:05.050Z,3.58
2022-09-09T01:48:34.617Z,4.32
2022-09-09T01:51:05.968Z,5.85
2022-09-09T01:53:33.555Z,4.43
2022-09-09T01:56:06.962Z,4.95
2022-09-09T01:58:49.600Z,3.90
2022-09-09T02:01:26.260Z,4.00
2022-09-09T02:03:58.218Z,2.78
2022-09-09T02:06:35.387Z,5.70
2022-09-09T02:09:14.861Z,4.57
2022-09-09T02:11:44.765Z,6.72
2022-09-09T02:14:37.866Z,4.95
2022-09-09T02:17:09.354Z,2.80
2022-09-09T02:20:01.652Z,3.88
2022-09-09T02:22:41.916Z,4.18
2022-09-09T02:25:10.631Z,4.25
2022-09-09T02:27:38.674Z,5.85
2022-09-09T02:30:06.495Z,7.65
2022-09-09T02:32:40.720Z,5.13
2022-09-09T02:35:12.823Z,5.43
2022-09-09T02:37:43.062Z,5.60
2022-09-09T02:40:11.943Z,7.53
2022-09-09T02:42:44.386Z,4.68
2022-09-09T02:45:12.701Z,6.03
2022-09-09T02:48:00.005Z,4.85
2022-09-09T02:50:31.161Z,6.03
2022-09-09T02:53:00.133Z,5.35
2022-09-09T02:55:40.561Z,5.45
2022-09-09T02:58:12.937Z,5.80
2022-09-09T03:00:41.577Z,6.57
2022-09-09T03:03:12.368Z,5.03
2022-09-09T03:05:40.339Z,4.40
2022-09-09T03:08:08.070Z,4.95
2022-09-09T03:10:36.316Z,5.22
2022-09-09T03:13:06.383Z,5.72
2022-09-09T03:15:39.215Z,3.85
2022-09-09T03:18:08.566Z,4.82
2022-09-09T03:20:36.086Z,5.38
2022-09-09T03:23:03.547Z,5.40
2022-09-09T03:25:31.356Z,5.88
2022-09-09T03:27:58.970Z,5.03
2022-09-09T03:30:27.553Z,7.28
2022-09-09T03:32:57.764Z,6.35
2022-09-09T03:35:30.736Z,5.22
2022-09-09T03:37:58.474Z,5.93
2022-09-09T03:40:27.261Z,5.28
2022-09-09T03:42:55.033Z,5.60
2022-09-09T03:45:22.572Z,4.60
2022-09-09T03:47:51.109Z,5.90
2022-09-09T03:50:19.720Z,6.80
2022-09-09T03:52:48.620Z,6.28
2022-09-09T03:55:21.436Z,5.00
2022-09-09T03:57:49.301Z,5.80
2022-09-09T04:00:16.850Z,5.35
2022-09-09T04:02:45.043Z,5.97
2022-09-09T04:05:16.599Z,5.18
2022-09-09T04:07:45.905Z,6.05
2022-09-09T04:10:14.607Z,4.57
2022-09-09T04:12:43.098Z,6.50
2022-09-09T04:15:11.810Z,7.38
2022-09-09T04:17:40.508Z,6.03
2022-09-09T04:20:12.385Z,6.10
2022-09-09T04:22:40.176Z,8.23
2022-09-09T04:25:08.595Z,7.82
2022-09-09T04:27:36.950Z,9.18
2022-09-09T04:30:04.809Z,6.60
2022-09-09T04:32:34.673Z,8.23
2022-09-09T04:35:05.039Z,5.45
2022-09-09T04:37:32.822Z,7.50
2022-09-09T04:40:03.459Z,6.50
2022-09-09T04:42:32.163Z,8.65
2022-09-09T04:44:59.940Z,6.72
2022-09-09T04:47:27.552Z,8.40
2022-09-09T04:49:55.617Z,6.65
2022-09-09T04:52:23.205Z,6.88
2022-09-09T04:54:50.684Z,8.30
2022-09-09T04:57:18.985Z,7.60
2022-09-09T04:59:49.148Z,8.98
2022-09-09T05:02:16.977Z,11.40
2022-09-09T05:04:45.022Z,11.95
2022-09-09T05:07:14.322Z,8.95
2022-09-09T05:09:41.824Z,8.82
2022-09-09T05:12:09.428Z,10.07
2022-09-09T05:14:38.529Z,11.15
2022-09-09T05:17:07.037Z,11.10
2022-09-09T05:19:37.240Z,11.25
2022-09-09T05:22:05.461Z,10.07
2022-09-09T05:24:40.768Z,9.30
2022-09-09T05:27:11.833Z,10.00
2022-09-09T05:29:39.537Z,11.00
2022-09-09T05:32:13.533Z,11.55
2022-09-09T05:34:43.900Z,13.18
2022-09-09T05:37:11.754Z,13.32
2022-09-09T05:39:39.440Z,12.30
2022-09-09T05:42:07.190Z,12.65
2022-09-09T05:44:35.341Z,10.77
2022-09-09T05:47:03.475Z,11.88
2022-09-09T05:49:31.127Z,14.55
2022-09-09T05:51:58.608Z,13.07
2022-09-09T05:54:26.448Z,12.55
2022-09-09T05:56:55.941Z,14.50
2022-09-09T05:59:24.739Z,15.43
2022-09-09T06:01:55.505Z,16.35
2022-09-09T06:04:29.525Z,14.77
2022-09-09T06:06:57.315Z,15.77
2022-09-09T06:09:24.730Z,13.02
2022-09-09T06:11:52.284Z,14.15
2022-09-09T06:14:22.872Z,17.17
2022-09-09T06:16:52.327Z,18.05
2022-09-09T06:19:24.135Z,17.27
2022-09-09T06:21:51.913Z,16.50
2022-09-09T06:24:20.560Z,17.63
2022-09-09T06:26:48.162Z,15.77
2022-09-09T06:29:25.564Z,16.52
2022-09-09T06:31:54.258Z,18.25
2022-09-09T06:34:24.231Z,17.33
2022-09-09T06:36:58.796Z,16.67
2022-09-09T06:39:29.541Z,15.80
2022-09-09T06:41:59.612Z,17.85
2022-09-09T06:44:51.826Z,16.77
2022-09-09T06:47:25.890Z,13.35
2022-09-09T06:49:54.245Z,17.27
2022-09-09T06:52:22.175Z,17.05
2022-09-09T06:54:51.005Z,17.30
2022-09-09T06:57:36.539Z,15.50
2022-09-09T07:00:07.731Z,14.30
2022-09-09T07:02:40.145Z,17.05
2022-09-09T07:05:09.521Z,14.70
2022-09-09T07:07:37.830Z,19.45
2022-09-09T07:10:06.436Z,16.42
2022-09-09T07:12:34.317Z,14.85
2022-09-09T07:15:02.157Z,16.45
2022-09-09T07:17:30.271Z,15.80
2022-09-09T07:20:00.681Z,16.00
2022-09-09T07:22:29.677Z,15.95
2022-09-09T07:24:57.932Z,16.25
2022-09-09T07:27:26.848Z,15.43
2022-09-09T07:29:55.459Z,17.42
2022-09-09T07:32:23.155Z,15.48
2022-09-09T07:34:51.708Z,14.98
2022-09-09T07:37:20.078Z,13.57
2022-09-09T07:39:49.121Z,14.50
2022-09-09T07:42:18.703Z,14.60
2022-09-09T07:44:46.378Z,13.93
2022-09-09T07:47:16.645Z,13.98
2022-09-09T07:49:50.933Z,16.45
2022-09-09T07:52:23.837Z,15.95
2022-09-09T07:54:57.477Z,15.10
2022-09-09T07:57:25.459Z,15.88
2022-09-09T07:59:54.257Z,15.13
2022-09-09T08:02:22.274Z,14.32
2022-09-09T08:04:50.853Z,15.82
2022-09-09T08:07:20.721Z,13.50
2022-09-09T08:09:52.673Z,13.05
2022-09-09T08:12:27.540Z,13.35
2022-09-09T08:14:55.752Z,12.50
2022-09-09T08:17:26.582Z,12.13
2022-09-09T08:19:55.272Z,12.45
2022-09-09T08:22:27.256Z,11.85
2022-09-09T08:24:55.725Z,11.77
2022-09-09T08:27:23.812Z,13.00
2022-09-09T08:29:52.674Z,12.82
2022-09-09T08:32:20.567Z,11.07
2022-09-09T08:34:48.943Z,11.50
2022-09-09T08:37:21.533Z,11.45
2022-09-09T08:39:54.102Z,13.63
2022-09-09T08:42:48.596Z,11.85
2022-09-09T08:45:25.904Z,13.43
2022-09-09T08:48:10.215Z,14.05
2022-09-09T08:50:39.720Z,13.70
2022-09-09T08:53:26.049Z,12.88
2022-09-09T08:56:00.468Z,13.38
2022-09-09T08:58:53.685Z,13.18
2022-09-09T09:01:55.246Z,11.45
2022-09-09T09:04:35.021Z,10.98
2022-09-09T09:07:05.927Z,13.88
2022-09-09T09:09:34.583Z,13.77
2022-09-09T09:12:03.450Z,13.93
2022-09-09T09:14:37.741Z,12.60
2022-09-09T09:17:12.148Z,12.65
2022-09-09T09:19:41.273Z,14.77
2022-09-09T09:22:27.613Z,13.63
2022-09-09T09:25:06.191Z,13.60
2022-09-09T09:27:34.168Z,12.82
2022-09-09T09:30:29.585Z,10.55
2022-09-09T09:33:23.288Z,14.00
2022-09-09T09:35:54.783Z,11.52
2022-09-09T09:41:13.141Z,11.23
2022-09-09T09:43:45.948Z,11.85
2022-09-09T09:46:26.911Z,10.98
2022-09-09T09:49:03.178Z,10.57
2022-09-09T09:51:33.469Z,11.10
2022-09-09T09:54:24.749Z,11.70
2022-09-09T09:56:55.973Z,10.52
2022-09-09T09:59:39.077Z,10.65
2022-09-09T10:02:16.189Z,11.23
2022-09-09T10:04:46.452Z,9.82
2022-09-09T10:07:15.705Z,10.32
2022-09-09T10:09:45.702Z,10.18
2022-09-09T10:12:23.382Z,9.50
2022-09-09T10:14:51.358Z,9.00
2022-09-09T10:17:21.836Z,8.13
2022-09-09T10:19:57.345Z,8.35
2022-09-09T10:22:35.310Z,9.57
2022-09-09T10:25:12.121Z,7.78
2022-09-09T10:27:42.509Z,7.30
2022-09-09T10:30:15.535Z,6.75
2022-09-09T10:32:43.063Z,8.13
2022-09-09T10:35:14.324Z,5.68
2022-09-09T10:38:00.457Z,6.75
2022-09-09T10:40:36.037Z,8.40
2022-09-09T10:43:26.617Z,6.60
2022-09-09T10:46:06.541Z,6.82
2022-09-09T10:48:40.226Z,7.15
2022-09-09T10:51:07.667Z,5.65
2022-09-09T10:53:35.144Z,8.52
2022-09-09T10:56:11.140Z,5.47
2022-09-09T10:58:53.281Z,6.75
2022-09-09T11:01:20.733Z,5.60
2022-09-09T11:03:51.322Z,6.55
2022-09-09T11:06:20.736Z,6.32
2022-09-09T11:08:53.773Z,5.13
2022-09-09T11:11:29.076Z,7.30
2022-09-09T11:14:03.776Z,6.53
2022-09-09T11:16:49.693Z,4.57
2022-09-09T11:19:29.052Z,7.32
2022-09-09T11:21:59.023Z,5.25
2022-09-09T11:24:39.220Z,6.28
2022-09-09T11:27:19.751Z,5.43
2022-09-09T11:29:56.373Z,5.15
2022-09-09T11:32:46.768Z,7.25
2022-09-09T11:35:33.642Z,5.97
2022-09-09T11:38:21.316Z,5.80
2022-09-09T11:40:49.762Z,5.32
2022-09-09T11:43:23.014Z,6.13
2022-09-09T11:46:01.140Z,6.00
2022-09-09T11:48:36.311Z,5.47
2022-09-09T11:51:06.157Z,4.65
2022-09-09T11:53:33.986Z,4.78
2022-09-09T11:56:06.867Z,4.85
2022-09-09T11:58:40.043Z,5.43
2022-09-09T12:01:26.641Z,6.47
2022-09-09T12:03:57.692Z,6.40
2022-09-09T12:06:35.053Z,6.20
2022-09-09T12:09:12.163Z,5.57
2022-09-09T12:11:39.932Z,4.72
2022-09-09T12:14:20.424Z,3.25
2022-09-09T12:16:48.066Z,4.93
2022-09-09T12:19:16.961Z,3.83
2022-09-09T12:21:47.523Z,5.60
2022-09-09T12:24:17.422Z,4.10
2022-09-09T12:27:01.078Z,5.80
2022-09-09T12:29:34.300Z,3.45
2022-09-09T12:32:21.958Z,4.72
2022-09-09T12:34:51.521Z,2.80
2022-09-09T12:37:38.501Z,3.20
2022-09-09T12:40:08.841Z,4.03
2022-09-09T12:42:41.829Z,3.35
2022-09-09T12:45:29.706Z,3.00
2022-09-09T12:47:57.148Z,2.30
2022-09-09T12:50:28.782Z,3.45
2022-09-09T12:53:29.368Z,4.22
2022-09-09T12:56:03.964Z,2.85
2022-09-09T12:58:35.902Z,3.45
2022-09-09T13:01:06.109Z,2.83
2022-09-09T13:03:35.001Z,1.88
2022-09-09T13:06:15.963Z,4.70
2022-09-09T13:08:43.961Z,3.30
2022-09-09T13:11:14.554Z,2.38
2022-09-09T13:13:42.950Z,2.28
2022-09-09T13:16:25.094Z,3.67
2022-09-09T13:18:52.941Z,3.15
2022-09-09T13:21:20.501Z,3.05
2022-09-09T13:23:53.247Z,3.47
2022-09-09T13:26:22.796Z,3.22
2022-09-09T13:28:50.602Z,3.05
2022-09-09T13:31:35.336Z,4.43
2022-09-09T13:34:12.424Z,2.58
2022-09-09T13:36:41.989Z,2.38
2022-09-09T13:39:18.763Z,5.05
2022-09-09T13:41:47.132Z,2.63
2022-09-09T13:44:44.587Z,3.28
2022-09-09T13:47:24.277Z,5.28
2022-09-09T13:49:51.809Z,3.50
2022-09-09T13:52:20.265Z,3.45
2022-09-09T13:54:52.183Z,2.88
2022-09-09T13:57:26.377Z,5.72
2022-09-09T14:00:11.290Z,5.75
2022-09-09T14:02:40.255Z,4.07
2022-09-09T14:05:07.905Z,6.97
2022-09-09T14:07:35.347Z,2.38
2022-09-09T14:10:02.827Z,5.25
2022-09-09T14:12:30.318Z,6.57
2022-09-09T14:14:57.831Z,4.45
2022-09-09T14:17:26.237Z,6.97
2022-09-09T14:19:53.666Z,11.02
2022-09-09T14:22:21.246Z,8.57
2022-09-09T14:24:49.377Z,8.75
2022-09-09T14:27:17.287Z,6.90
2022-09-09T14:29:45.350Z,7.07
2022-09-09T14:32:13.307Z,7.88
2022-09-09T14:34:41.648Z,6.95
2022-09-09T14:37:09.121Z,8.57
2022-09-09T14:39:36.626Z,5.45
2022-09-09T14:42:04.198Z,5.78
2022-09-09T14:44:31.763Z,4.70
2022-09-09T14:46:59.669Z,5.90
2022-09-09T14:49:28.310Z,7.75
2022-09-09T14:51:55.799Z,5.18
2022-09-09T14:54:24.084Z,4.55
2022-09-09T14:56:51.593Z,5.97
2022-09-09T14:59:19.039Z,5.15
2022-09-09T15:01:46.643Z,6.13
2022-09-09T15:04:17.994Z,4.63
2022-09-09T15:06:49.172Z,6.32
2022-09-09T15:09:17.409Z,4.82
2022-09-09T15:11:45.395Z,6.50
2022-09-09T15:14:13.324Z,5.88
2022-09-09T15:16:41.335Z,5.43
2022-09-09T15:19:09.936Z,9.30
2022-09-09T15:21:38.804Z,7.75
2022-09-09T15:24:08.405Z,5.00
2022-09-09T15:26:39.537Z,5.70
2022-09-09T15:29:09.220Z,8.25
2022-09-09T15:31:37.328Z,6.90
2022-09-09T15:34:06.154Z,9.35
2022-09-09T15:36:40.800Z,9.90
2022-09-09T15:39:10.733Z,4.05
2022-09-09T15:41:38.211Z,7.32
2022-09-09T15:44:06.389Z,5.47
2022-09-09T15:46:33.952Z,6.95
2022-09-09T15:49:06.125Z,6.60
2022-09-09T15:51:43.241Z,7.30
2022-09-09T15:54:13.363Z,9.40
2022-09-09T15:56:41.250Z,4.70
2022-09-09T15:59:08.916Z,6.43
2022-09-09T16:01:36.740Z,5.30
2022-09-09T16:04:05.053Z,4.93
2022-09-09T16:06:32.878Z,6.75
2022-09-09T16:09:02.006Z,5.88
2022-09-09T16:11:32.213Z,6.43
2022-09-09T16:14:00.465Z,6.75
2022-09-09T16:16:30.504Z,7.82
2022-09-09T16:18:59.384Z,8.18
2022-09-09T16:21:31.877Z,7.60
2022-09-09T16:24:00.828Z,6.85
2022-09-09T16:26:28.967Z,4.95
2022-09-09T16:28:56.457Z,6.60
2022-09-09T16:31:25.036Z,5.53
2022-09-09T16:33:52.972Z,5.07
2022-09-09T16:36:24.404Z,4.13
2022-09-09T16:38:59.076Z,6.85
2022-09-09T16:41:28.731Z,5.60
2022-09-09T16:43:57.623Z,4.07
2022-09-09T16:46:25.559Z,5.70
2022-09-09T16:48:53.749Z,7.07
2022-09-09T16:51:21.196Z,5.40
2022-09-09T16:53:48.720Z,7.45
2022-09-09T16:56:20.164Z,7.28
2022-09-09T16:58:56.681Z,6.00
2022-09-09T17:01:24.781Z,8.57
2022-09-09T17:04:00.201Z,5.57
2022-09-09T17:06:30.010Z,5.10
2022-09-09T17:09:02.464Z,4.93
2022-09-09T17:11:30.611Z,4.25
2022-09-09T17:13:59.202Z,4.05
2022-09-09T17:16:28.522Z,4.40
2022-09-09T17:18:56.813Z,3.58
2022-09-09T17:21:26.453Z,3.45
2022-09-09T17:23:55.174Z,3.13
2022-09-09T17:26:23.585Z,3.85
2022-09-09T17:28:53.300Z,4.63
2022-09-09T17:31:22.633Z,3.40
2022-09-09T17:33:51.063Z,4.57
2022-09-09T17:36:19.649Z,7.97
2022-09-09T17:38:47.934Z,5.30
2022-09-09T17:41:15.488Z,6.72
2022-09-09T17:43:43.553Z,4.65
2022-09-09T17:46:15.953Z,6.05
2022-09-09T17:48:43.989Z,4.30
2022-09-09T17:51:13.786Z,5.05
2022-09-09T17:53:43.052Z,6.60
2022-09-09T17:56:11.426Z,5.65
2022-09-09T17:58:39.493Z,4.65
2022-09-09T18:01:08.403Z,5.90
2022-09-09T18:03:37.039Z,4.28
2022-09-09T18:06:06.499Z,5.00
2022-09-09T18:08:36.857Z,6.13
2022-09-09T18:11:05.065Z,6.65
2022-09-09T18:13:32.616Z,5.43
2022-09-09T18:16:00.329Z,6.75
2022-09-09T18:18:28.504Z,5.53
2022-09-09T18:21:03.119Z,5.47
2022-09-09T18:23:31.229Z,4.63
2022-09-09T18:25:59.693Z,4.88
2022-09-09T18:28:28.016Z,4.72
2022-09-09T18:30:55.610Z,4.07
2022-09-09T18:33:23.156Z,5.35
2022-09-09T18:35:50.705Z,6.60
2022-09-09T18:38:18.205Z,4.53
2022-09-09T18:40:45.658Z,4.47
2022-09-09T18:43:13.292Z,4.50
2022-09-09T18:45:40.985Z,4.20
2022-09-09T18:48:08.473Z,4.05
2022-09-09T18:50:36.053Z,3.75
2022-09-09T18:53:03.542Z,5.03
2022-09-09T18:55:32.878Z,5.43
2022-09-09T18:58:00.352Z,4.53
2022-09-09T19:00:29.373Z,6.38
2022-09-09T19:02:56.940Z,3.50
2022-09-09T19:05:24.448Z,6.32
2022-09-09T19:07:51.970Z,4.22
2022-09-09T19:10:19.489Z,5.32
2022-09-09T19:12:47.051Z,4.32
2022-09-09T19:15:15.478Z,4.43
2022-09-09T19:17:42.937Z,3.90
2022-09-09T19:20:10.673Z,4.13
2022-09-09T19:22:38.145Z,3.45
2022-09-09T19:25:06.605Z,4.30
2022-09-09T19:27:34.929Z,4.60
2022-09-09T19:30:02.408Z,3.53
2022-09-09T19:32:52.206Z,4.93
2022-09-09T19:35:19.994Z,5.70
2022-09-09T19:37:47.702Z,5.50
2022-09-09T19:40:15.302Z,3.17
2022-09-09T19:42:43.016Z,4.57
2022-09-09T19:45:10.702Z,3.90
2022-09-09T19:47:38.233Z,4.30
2022-09-09T19:50:05.921Z,4.82
2022-09-09T19:52:33.403Z,3.70
2022-09-09T19:55:01.376Z,5.68
2022-09-09T19:57:30.875Z,4.05
2022-09-09T19:59:58.416Z,4.68
2022-09-09T20:02:25.979Z,5.38
2022-09-09T20:04:54.477Z,4.68
2022-09-09T20:07:21.954Z,6.35
2022-09-09T20:09:49.479Z,6.13
2022-09-09T20:12:17.041Z,4.68
2022-09-09T20:14:44.523Z,6.50
2022-09-09T20:17:12.143Z,4.88
2022-09-09T20:19:40.078Z,5.10
2022-09-09T20:22:07.582Z,4.65
2022-09-09T20:24:37.110Z,6.15
2022-09-09T20:27:04.706Z,6.13
2022-09-09T20:29:32.194Z,6.78
2022-09-09T20:31:59.662Z,3.83
2022-09-09T20:34:28.253Z,5.18
2022-09-09T20:36:57.275Z,4.68
2022-09-09T20:39:25.681Z,5.03
2022-09-09T20:41:53.759Z,7.03
2022-09-09T20:44:24.361Z,3.90
2022-09-09T20:46:54.614Z,5.25
2022-09-09T20:49:24.351Z,4.85
2022-09-09T20:51:52.367Z,6.15
2022-09-09T20:54:21.296Z,5.47
2022-09-09T20:56:50.439Z,5.27
2022-09-09T20:59:20.207Z,6.63
2022-09-09T21:01:48.071Z,6.07
2022-09-09T21:04:16.697Z,5.82
2022-09-09T21:06:44.197Z,5.57
2022-09-09T21:09:11.670Z,5.32
2022-09-09T21:11:39.134Z,4.60
2022-09-09T21:14:06.863Z,5.32
2022-09-09T21:16:34.466Z,3.78
2022-09-09T21:19:01.995Z,5.95
2022-09-09T21:21:29.486Z,3.67
2022-09-09T21:23:58.359Z,5.65
2022-09-09T21:26:26.122Z,6.22
2022-09-09T21:28:54.986Z,6.50
2022-09-09T21:31:27.429Z,3.70
2022-09-09T21:33:56.189Z,6.13
2022-09-09T21:36:24.184Z,6.82
2022-09-09T21:38:51.930Z,4.95
2022-09-09T21:41:19.472Z,4.40
2022-09-09T21:43:47.273Z,3.45
2022-09-09T21:46:16.463Z,8.43
2022-09-09T21:48:44.452Z,2.17
2022-09-09T21:51:14.665Z,5.22
2022-09-09T21:53:42.857Z,4.18
2022-09-09T21:56:14.895Z,5.90
2022-09-09T21:58:42.760Z,4.57
2022-09-09T22:01:17.815Z,3.37
2022-09-09T22:03:45.468Z,5.20
2022-09-09T22:06:14.523Z,3.70
2022-09-09T22:08:42.847Z,2.97
2022-09-09T22:11:12.492Z,2.95
2022-09-09T22:13:39.992Z,3.87
2022-09-09T22:16:09.310Z,5.50
2022-09-09T22:18:37.080Z,2.93
2022-09-09T22:21:15.930Z,3.08
2022-09-09T22:23:43.732Z,2.60
2022-09-09T22:26:11.673Z,4.37
2022-09-09T22:28:39.642Z,3.03
2022-09-09T22:31:07.289Z,2.87
2022-09-09T22:33:35.214Z,3.05
2022-09-09T22:36:02.821Z,2.85
2022-09-09T22:38:30.340Z,2.97
2022-09-09T22:40:58.350Z,2.75
2022-09-09T22:43:25.832Z,2.75
2022-09-09T22:45:53.312Z,3.22
2022-09-09T22:48:20.878Z,3.15
2022-09-09T22:50:48.448Z,2.50
2022-09-09T22:53:17.119Z,2.10
2022-09-09T22:55:44.727Z,2.57
2022-09-09T22:58:12.166Z,2.15
2022-09-09T23:00:41.827Z,4.87
2022-09-09T23:03:09.314Z,2.67
2022-09-09T23:05:38.630Z,2.95
2022-09-09T23:08:06.179Z,3.80
2022-09-09T23:10:33.861Z,3.65
2022-09-09T23:13:01.817Z,4.83
2022-09-09T23:15:31.318Z,6.07
2022-09-09T23:17:58.956Z,2.97
2022-09-09T23:20:26.928Z,3.30
2022-09-09T23:22:54.586Z,1.93
2022-09-09T23:25:22.912Z,4.80
2022-09-09T23:27:50.463Z,2.40
2022-09-09T23:30:18.393Z,2.33
2022-09-09T23:32:47.109Z,2.30
2022-09-09T23:35:14.573Z,3.97
2022-09-09T23:37:42.056Z,4.00
2022-09-09T23:40:09.727Z,2.70
2022-09-09T23:42:37.228Z,2.53
2022-09-09T23:45:04.829Z,1.40
2022-09-09T23:47:32.319Z,1.53
2022-09-09T23:49:59.860Z,2.30
2022-09-09T23:52:27.279Z,3.70
2022-09-09T23:54:56.105Z,2.57
2022-09-09T23:57:23.892Z,2.57
2022-09-09T23:59:51.373Z,4.37
